Time;durP1;ratioP1;P1;durP2;ratioP2;P2;SDS_P1;SDS_P2;PMS_P1;PMS_P2;Temp;Humidity;BMP_temperature;BMP_pressure;BME280_temperature;BME280_humidity;BME280_pressure;Samples;Min_cycle;Max_cycle;Signal;HPM_P1;HPM_P2
2021/12/04 00:00:38;;;;;;;79.40;25.45;;;4.60;99.90;;;;;;5115072;27;20126;-70
2021/12/04 00:03:04;;;;;;;81.97;24.80;;;4.60;99.90;;;;;;5114288;27;20114;-69
2021/12/04 00:05:30;;;;;;;84.07;24.70;;;4.60;99.90;;;;;;5114806;27;20110;-70
2021/12/04 00:07:56;;;;;;;76.90;24.10;;;4.50;99.90;;;;;;5115197;27;20093;-69
2021/12/04 00:10:27;;;;;;;82.85;23.67;;;4.60;99.90;;;;;;5115080;27;20316;-69
2021/12/04 00:12:52;;;;;;;85.20;25.50;;;4.60;99.90;;;;;;5114830;27;20039;-69
2021/12/04 00:15:18;;;;;;;76.30;23.98;;;4.60;99.90;;;;;;5113877;27;20504;-69
2021/12/04 00:17:43;;;;;;;82.40;25.92;;;4.50;99.90;;;;;;5114755;27;20045;-68
2021/12/04 00:20:10;;;;;;;89.30;25.30;;;4.60;99.90;;;;;;5113948;27;20096;-69
2021/12/04 00:22:36;;;;;;;84.13;25.27;;;4.60;99.90;;;;;;5114633;27;20035;-70
2021/12/04 00:25:08;;;;;;;85.80;24.95;;;4.60;99.90;;;;;;5114070;27;20043;-69
2021/12/04 00:27:34;;;;;;;81.43;24.23;;;4.60;99.90;;;;;;5114967;27;20096;-70
2021/12/04 00:29:59;;;;;;;79.32;23.70;;;4.60;99.90;;;;;;5114714;27;20122;-69
2021/12/04 00:35:03;;;;;;;88.68;25.63;;;4.60;99.90;;;;;;5112654;27;20043;-69
2021/12/04 00:50:50;;;;;;;89.15;24.35;;;4.60;99.90;;;;;;5112834;27;20044;-70
2021/12/04 00:53:16;;;;;;;94.20;24.52;;;4.60;99.90;;;;;;5112712;27;20455;-69
2021/12/04 00:55:41;;;;;;;82.82;24.92;;;4.60;99.90;;;;;;5113067;27;20042;-70
2021/12/04 00:58:07;;;;;;;77.60;23.50;;;4.60;99.90;;;;;;5112627;27;20031;-70
2021/12/04 01:00:32;;;;;;;74.20;23.52;;;4.60;99.90;;;;;;5110386;27;20114;-69
2021/12/04 01:02:58;;;;;;;79.45;23.38;;;4.60;99.90;;;;;;5112452;27;20039;-69
2021/12/04 01:05:24;;;;;;;72.90;22.73;;;4.50;99.90;;;;;;5113462;27;20043;-69
2021/12/04 01:07:49;;;;;;;62.83;21.58;;;4.60;99.90;;;;;;5112682;27;20091;-69
2021/12/04 01:10:15;;;;;;;63.80;20.20;;;4.60;99.90;;;;;;5112178;27;20039;-69
2021/12/04 01:12:41;;;;;;;64.40;21.60;;;4.50;99.90;;;;;;5113120;27;20106;-70
2021/12/04 01:15:07;;;;;;;63.35;20.20;;;4.60;99.90;;;;;;5112771;27;20088;-70
2021/12/04 01:17:32;;;;;;;56.50;20.23;;;4.50;99.90;;;;;;5112594;27;20031;-70
2021/12/04 01:19:58;;;;;;;54.20;20.02;;;4.50;99.90;;;;;;5111534;27;20066;-70
2021/12/04 01:22:25;;;;;;;53.78;19.70;;;4.50;99.90;;;;;;5112780;27;20042;-70
2021/12/04 01:24:50;;;;;;;49.70;19.58;;;4.50;99.90;;;;;;5110072;27;20039;-69
2021/12/04 01:27:16;;;;;;;55.30;18.70;;;4.50;99.90;;;;;;5112232;27;20023;-69
2021/12/04 01:29:42;;;;;;;48.83;17.50;;;4.50;99.90;;;;;;5111821;27;20035;-69
2021/12/04 01:32:09;;;;;;;45.80;18.75;;;4.50;99.90;;;;;;5111917;27;20047;-69
2021/12/04 01:34:35;;;;;;;48.20;18.05;;;4.50;99.90;;;;;;5112060;27;20091;-69
2021/12/04 01:37:02;;;;;;;45.65;17.30;;;4.50;99.90;;;;;;5123117;27;20035;-69
2021/12/04 01:39:28;;;;;;;48.58;18.17;;;4.50;99.90;;;;;;5110587;27;20103;-69
2021/12/04 01:41:53;;;;;;;45.40;17.63;;;4.50;99.90;;;;;;5111975;27;20398;-70
2021/12/04 01:44:20;;;;;;;45.30;17.30;;;4.50;99.90;;;;;;5112306;27;20482;-70
2021/12/04 01:46:45;;;;;;;41.70;16.83;;;4.50;99.90;;;;;;5111712;28;20031;-70
2021/12/04 01:49:11;;;;;;;47.65;16.88;;;4.50;99.90;;;;;;5111644;27;20062;-69
2021/12/04 01:51:37;;;;;;;42.42;16.50;;;4.50;99.90;;;;;;5112840;27;20035;-69
2021/12/04 01:54:03;;;;;;;47.42;17.63;;;4.50;99.90;;;;;;5112003;27;20047;-69
2021/12/04 01:56:30;;;;;;;44.10;16.90;;;4.50;99.90;;;;;;5112871;28;20035;-69
2021/12/04 01:58:56;;;;;;;48.03;17.73;;;4.50;99.90;;;;;;5111603;28;20134;-69
2021/12/04 02:01:21;;;;;;;45.97;16.83;;;4.50;99.90;;;;;;5112189;28;20481;-70
2021/12/04 02:03:47;;;;;;;46.10;16.33;;;4.50;99.90;;;;;;5110911;28;20097;-67
2021/12/04 02:06:13;;;;;;;44.55;16.15;;;4.50;99.90;;;;;;5110983;28;20038;-69
2021/12/04 02:08:38;;;;;;;46.78;16.52;;;4.50;99.90;;;;;;5111430;28;20039;-70
2021/12/04 02:11:04;;;;;;;44.80;16.33;;;4.50;99.90;;;;;;5110875;28;20042;-70
2021/12/04 02:13:30;;;;;;;47.70;16.92;;;4.50;99.90;;;;;;5111128;28;20035;-69
2021/12/04 02:15:56;;;;;;;44.15;16.40;;;4.50;99.90;;;;;;5111106;28;20035;-70
2021/12/04 02:18:22;;;;;;;44.90;16.35;;;4.50;99.90;;;;;;5111282;28;20039;-68
2021/12/04 02:20:48;;;;;;;41.20;15.57;;;4.50;99.90;;;;;;5111215;28;20131;-69
2021/12/04 02:23:14;;;;;;;45.15;16.25;;;4.50;99.90;;;;;;5110877;28;20070;-70
2021/12/04 02:25:40;;;;;;;45.08;16.65;;;4.50;99.90;;;;;;5094046;28;20032;-70
2021/12/04 02:28:08;;;;;;;41.05;16.33;;;4.50;99.90;;;;;;5110424;28;20515;-70
2021/12/04 02:30:36;;;;;;;45.33;16.77;;;4.50;99.90;;;;;;5110585;28;20106;-70
2021/12/04 02:33:13;;;;;;;46.95;17.05;;;4.50;99.90;;;;;;5110868;28;20047;-70
2021/12/04 02:35:50;;;;;;;41.65;15.50;;;4.50;99.90;;;;;;5110863;28;20041;-70
2021/12/04 02:38:17;;;;;;;44.70;16.08;;;4.50;99.90;;;;;;5109025;28;20031;-69
2021/12/04 02:40:44;;;;;;;42.00;15.73;;;4.50;99.90;;;;;;5111601;28;20080;-70
2021/12/04 02:43:11;;;;;;;46.40;16.30;;;4.50;99.90;;;;;;5110878;28;20043;-70
2021/12/04 02:45:36;;;;;;;42.58;15.35;;;4.50;99.90;;;;;;5110228;28;20119;-71
2021/12/04 02:48:02;;;;;;;39.28;14.82;;;4.50;99.90;;;;;;5113496;27;20063;-70
2021/12/04 02:50:27;;;;;;;40.63;15.15;;;4.50;99.90;;;;;;5114552;27;20027;-70
2021/12/04 02:52:53;;;;;;;39.28;15.13;;;4.50;99.90;;;;;;5114511;27;20088;-69
2021/12/04 02:55:19;;;;;;;42.65;16.02;;;4.50;99.90;;;;;;5115029;27;20035;-69
2021/12/04 02:57:46;;;;;;;36.75;14.63;;;4.50;99.90;;;;;;5114711;27;20038;-70
2021/12/04 03:00:15;;;;;;;40.60;15.20;;;4.50;99.90;;;;;;5111762;27;20031;-70
2021/12/04 03:02:41;;;;;;;44.58;16.05;;;4.50;99.90;;;;;;5114237;27;20100;-70
2021/12/04 03:05:09;;;;;;;45.70;15.75;;;4.50;99.90;;;;;;5114234;27;20035;-70
2021/12/04 03:07:34;;;;;;;38.30;15.23;;;4.50;99.90;;;;;;5114397;27;20046;-70
2021/12/04 03:10:00;;;;;;;43.97;15.68;;;4.50;99.90;;;;;;5109114;27;20035;-70
2021/12/04 03:12:28;;;;;;;43.30;15.23;;;4.50;99.90;;;;;;5114102;27;20121;-70
2021/12/04 03:14:54;;;;;;;43.30;15.05;;;4.50;99.90;;;;;;5114404;27;20082;-70
2021/12/04 03:17:22;;;;;;;42.88;14.88;;;4.50;99.90;;;;;;5114278;27;20409;-70
2021/12/04 03:19:52;;;;;;;38.80;14.35;;;4.50;99.90;;;;;;5132334;27;20045;-70
2021/12/04 03:22:20;;;;;;;44.05;15.07;;;4.50;99.90;;;;;;5114506;27;20043;-70
2021/12/04 03:24:46;;;;;;;38.55;14.30;;;4.50;99.90;;;;;;5113767;27;20448;-70
2021/12/04 03:27:13;;;;;;;40.92;14.43;;;4.50;99.90;;;;;;5113783;27;20046;-70
2021/12/04 03:29:48;;;;;;;40.17;14.85;;;4.50;99.90;;;;;;5113773;27;20043;-70
2021/12/04 03:42:59;;;;;;;36.30;14.80;;;4.50;99.90;;;;;;5112789;27;20049;-70
2021/12/04 03:45:25;;;;;;;39.30;13.82;;;4.50;99.90;;;;;;5113680;27;20043;-70
2021/12/04 03:47:53;;;;;;;35.10;13.40;;;4.50;99.90;;;;;;5113268;27;20113;-70
2021/12/04 03:50:19;;;;;;;38.10;13.93;;;4.50;99.90;;;;;;5113429;27;20074;-71
2021/12/04 03:52:45;;;;;;;38.80;14.50;;;4.50;99.90;;;;;;5113610;27;20465;-69
2021/12/04 03:55:10;;;;;;;39.22;13.75;;;4.50;99.90;;;;;;5113531;27;20043;-70
2021/12/04 03:57:44;;;;;;;38.95;14.30;;;4.50;99.90;;;;;;5113188;27;20381;-70
2021/12/04 04:00:11;;;;;;;36.15;13.77;;;4.50;99.90;;;;;;5111871;27;20122;-70
2021/12/04 04:02:36;;;;;;;34.85;13.57;;;4.50;99.90;;;;;;5112225;27;20059;-70
2021/12/04 04:05:02;;;;;;;32.97;13.48;;;4.50;99.90;;;;;;5113633;27;20069;-70
2021/12/04 04:07:28;;;;;;;33.60;12.98;;;4.50;99.90;;;;;;5113533;27;20058;-70
2021/12/04 04:09:53;;;;;;;32.17;12.63;;;4.50;99.90;;;;;;5113272;27;20100;-70
2021/12/04 04:12:19;;;;;;;32.03;12.82;;;4.50;99.90;;;;;;5113242;27;20046;-70
2021/12/04 04:14:44;;;;;;;34.78;13.38;;;4.50;99.90;;;;;;5113063;27;20039;-70
2021/12/04 04:17:10;;;;;;;33.90;12.90;;;4.50;99.90;;;;;;5112676;27;20512;-70
2021/12/04 04:19:36;;;;;;;31.38;13.27;;;4.50;99.90;;;;;;5112367;27;20431;-71
2021/12/04 04:22:02;;;;;;;33.70;12.85;;;4.50;99.90;;;;;;5112949;27;20091;-70
2021/12/04 04:24:29;;;;;;;35.47;12.95;;;4.50;99.90;;;;;;5113133;27;20512;-70
2021/12/04 04:26:55;;;;;;;33.38;12.45;;;4.50;99.90;;;;;;5112942;27;20081;-70
2021/12/04 04:29:22;;;;;;;36.45;13.55;;;4.50;99.90;;;;;;5113916;27;20442;-70
2021/12/04 04:31:48;;;;;;;33.00;12.63;;;4.50;99.90;;;;;;5110098;27;20070;-70
2021/12/04 04:34:22;;;;;;;35.70;13.75;;;4.50;99.90;;;;;;5112299;27;20116;-70
2021/12/04 04:37:04;;;;;;;34.83;12.82;;;4.50;99.90;;;;;;5112258;27;20067;-70
2021/12/04 05:12:47;;;;;;;35.15;13.07;;;4.50;99.90;;;;;;5111859;27;20092;-70
2021/12/04 05:14:44;;;;;;;35.10;13.65;;;4.50;99.90;;;;;;5099387;27;20136;-70
2021/12/04 05:17:14;;;;;;;38.53;14.60;;;4.50;99.90;;;;;;5110337;27;20047;-70
2021/12/04 05:19:45;;;;;;;36.78;14.32;;;4.50;99.90;;;;;;5112642;27;20046;-70
2021/12/04 05:22:14;;;;;;;44.35;14.77;;;4.50;99.90;;;;;;5112952;27;20054;-70
2021/12/04 05:24:41;;;;;;;42.00;14.57;;;4.50;99.90;;;;;;5112676;27;20031;-70
2021/12/04 05:27:08;;;;;;;42.15;14.23;;;4.50;99.90;;;;;;5112448;27;20042;-70
2021/12/04 05:29:34;;;;;;;42.35;15.10;;;4.50;99.90;;;;;;5094760;27;20063;-70
2021/12/04 05:32:01;;;;;;;39.38;14.80;;;4.50;99.90;;;;;;5112005;27;20039;-70
2021/12/04 05:34:27;;;;;;;39.75;14.57;;;4.50;99.90;;;;;;5112730;27;20139;-70
2021/12/04 05:36:53;;;;;;;43.25;15.38;;;4.50;99.90;;;;;;5112109;27;20486;-70
2021/12/04 05:39:18;;;;;;;43.58;15.32;;;4.50;99.90;;;;;;5111788;27;20035;-70
2021/12/04 05:41:44;;;;;;;42.08;15.20;;;4.50;99.90;;;;;;5112668;27;20035;-70
2021/12/04 05:44:11;;;;;;;49.72;16.10;;;4.50;99.90;;;;;;5111019;27;20035;-70
2021/12/04 05:47:04;;;;;;;45.22;15.30;;;4.50;99.90;;;;;;5111330;27;20118;-70
2021/12/04 05:49:51;;;;;;;47.25;15.70;;;4.50;99.90;;;;;;5111571;28;20106;-70
2021/12/04 05:52:25;;;;;;;43.05;14.52;;;4.50;99.90;;;;;;5095046;28;20439;-70
2021/12/04 05:55:09;;;;;;;48.92;15.63;;;4.50;99.90;;;;;;5095050;27;20443;-70
2021/12/04 05:57:35;;;;;;;44.70;15.63;;;4.50;99.90;;;;;;5112183;27;20134;-70
2021/12/04 06:00:01;;;;;;;44.78;15.68;;;4.50;99.90;;;;;;5111069;28;20130;-70
2021/12/04 06:02:26;;;;;;;46.53;15.75;;;4.50;99.90;;;;;;5111742;28;20035;-70
2021/12/04 06:04:52;;;;;;;51.20;16.50;;;4.50;99.90;;;;;;5112067;28;20489;-70
2021/12/04 06:07:17;;;;;;;47.63;16.00;;;4.50;99.90;;;;;;5112162;28;20481;-70
2021/12/04 06:09:43;;;;;;;52.58;16.58;;;4.50;99.90;;;;;;5094937;28;20065;-70
2021/12/04 06:12:08;;;;;;;49.83;16.17;;;4.50;99.90;;;;;;5111918;28;20039;-70
2021/12/04 06:14:35;;;;;;;51.47;15.95;;;4.50;99.90;;;;;;5108981;28;20039;-70
2021/12/04 06:17:01;;;;;;;54.90;16.70;;;4.50;99.90;;;;;;5111737;28;20450;-70
2021/12/04 06:22:37;;;;;;;49.70;16.13;;;4.50;99.90;;;;;;5111170;28;20161;-70
2021/12/04 06:24:58;;;;;;;55.92;15.90;;;4.50;99.90;;;;;;5115606;27;20051;-70
2021/12/04 06:27:23;;;;;;;53.63;16.63;;;4.50;99.90;;;;;;5115556;27;20035;-70
2021/12/04 06:29:49;;;;;;;56.90;16.80;;;4.50;99.90;;;;;;5115096;27;20042;-70
2021/12/04 06:32:15;;;;;;;49.80;15.80;;;4.50;99.90;;;;;;5115975;27;20039;-70
2021/12/04 06:34:41;;;;;;;60.85;16.52;;;4.50;99.90;;;;;;5116139;27;20054;-70
2021/12/04 06:37:06;;;;;;;59.70;17.02;;;4.60;99.90;;;;;;5116001;27;20039;-70
2021/12/04 06:39:32;;;;;;;58.47;17.65;;;4.50;99.90;;;;;;5113972;27;20179;-70
2021/12/04 06:41:57;;;;;;;53.70;17.67;;;4.50;99.90;;;;;;5115680;27;20047;-70
2021/12/04 06:44:23;;;;;;;69.15;17.83;;;4.50;99.90;;;;;;5115162;27;20035;-70
2021/12/04 06:46:49;;;;;;;65.85;17.92;;;4.50;99.90;;;;;;5115176;27;20104;-70
2021/12/04 06:50:03;;;;;;;54.45;17.20;;;4.50;99.90;;;;;;5115282;27;20065;-70
2021/12/04 06:52:06;;;;;;;62.08;17.40;;;4.50;99.90;;;;;;5109463;27;20051;-70
2021/12/04 06:54:36;;;;;;;62.80;16.75;;;4.50;99.90;;;;;;5113540;27;20073;-70
2021/12/04 06:57:03;;;;;;;59.53;16.85;;;4.50;99.90;;;;;;5115481;27;20049;-70
2021/12/04 06:59:32;;;;;;;58.20;17.75;;;4.50;99.90;;;;;;5114383;27;20039;-70
2021/12/04 07:01:58;;;;;;;65.20;17.00;;;4.50;99.90;;;;;;5114714;27;20035;-70
2021/12/04 07:04:29;;;;;;;65.57;18.40;;;4.60;99.90;;;;;;5115364;27;20039;-70
2021/12/04 07:06:55;;;;;;;67.10;17.75;;;4.50;99.90;;;;;;5098661;27;20100;-70
2021/12/04 07:09:20;;;;;;;71.68;18.40;;;4.50;99.90;;;;;;5097914;27;20428;-70
2021/12/04 07:11:46;;;;;;;59.17;18.27;;;4.50;99.90;;;;;;5114662;27;20039;-70
2021/12/04 07:14:12;;;;;;;64.18;17.83;;;4.50;99.90;;;;;;5133600;27;20058;-70
2021/12/04 07:16:37;;;;;;;66.35;18.27;;;4.50;99.90;;;;;;5115017;27;20031;-70
2021/12/04 07:19:03;;;;;;;56.40;16.98;;;4.60;99.90;;;;;;5114817;27;20038;-70
2021/12/04 07:21:28;;;;;;;66.47;17.92;;;4.50;99.90;;;;;;5097755;27;20434;-70
2021/12/04 07:23:54;;;;;;;62.72;17.70;;;4.50;99.90;;;;;;5114729;27;20039;-70
2021/12/04 07:26:20;;;;;;;66.60;17.45;;;4.50;99.90;;;;;;5114138;27;20413;-70
2021/12/04 07:28:45;;;;;;;59.60;16.92;;;4.50;99.90;;;;;;5097906;27;20042;-70
2021/12/04 07:31:11;;;;;;;66.95;17.85;;;4.50;99.90;;;;;;5108234;27;20118;-70
2021/12/04 07:33:37;;;;;;;59.33;17.80;;;4.50;99.90;;;;;;5096989;27;20530;-70
2021/12/04 07:36:03;;;;;;;54.30;16.85;;;4.50;99.90;;;;;;5114295;27;20472;-70
2021/12/04 07:38:29;;;;;;;54.67;15.30;;;4.50;99.90;;;;;;5114588;27;20046;-70
2021/12/04 07:40:55;;;;;;;56.92;15.27;;;4.50;99.90;;;;;;5113679;27;20035;-70
2021/12/04 07:43:20;;;;;;;55.38;15.23;;;4.50;99.90;;;;;;5114669;27;20039;-71
2021/12/04 07:45:46;;;;;;;53.85;15.32;;;4.60;99.90;;;;;;5114501;27;20038;-70
2021/12/04 07:48:12;;;;;;;42.28;14.30;;;4.50;99.90;;;;;;5113624;27;20465;-71
2021/12/04 07:50:37;;;;;;;52.20;14.95;;;4.60;99.90;;;;;;5113982;27;20503;-71
2021/12/04 07:53:03;;;;;;;53.00;14.73;;;4.60;99.90;;;;;;5114363;27;20171;-71
2021/12/04 07:55:29;;;;;;;55.28;15.65;;;4.60;99.90;;;;;;5114687;27;20488;-70
2021/12/04 07:57:55;;;;;;;45.05;14.38;;;4.60;99.90;;;;;;5114219;27;20089;-71
2021/12/04 08:00:22;;;;;;;43.83;14.40;;;4.60;99.90;;;;;;5113802;27;20449;-71
2021/12/04 08:02:48;;;;;;;51.92;15.32;;;4.60;99.90;;;;;;5114399;27;20114;-70
2021/12/04 08:05:15;;;;;;;63.28;16.77;;;4.60;99.90;;;;;;5114644;27;20088;-70
2021/12/04 08:07:40;;;;;;;67.15;17.27;;;4.60;99.90;;;;;;5114593;27;20474;-71
2021/12/04 08:10:09;;;;;;;60.63;16.45;;;4.60;99.90;;;;;;5114843;27;20093;-71
2021/12/04 08:12:36;;;;;;;66.40;17.10;;;4.60;99.90;;;;;;5115454;27;20043;-70
2021/12/04 08:15:06;;;;;;;78.75;19.55;;;4.60;99.90;;;;;;5115363;27;20416;-70
2021/12/04 08:17:32;;;;;;;79.30;18.67;;;4.60;99.90;;;;;;5115542;27;20043;-70
2021/12/04 08:19:57;;;;;;;75.18;18.25;;;4.60;99.90;;;;;;5114568;27;20043;-70
2021/12/04 08:22:23;;;;;;;82.53;18.73;;;4.60;99.90;;;;;;5113720;27;20061;-70
2021/12/04 08:24:49;;;;;;;84.60;19.40;;;4.60;99.90;;;;;;5111743;27;20042;-70
2021/12/04 08:27:16;;;;;;;78.07;18.85;;;4.70;99.90;;;;;;5113228;27;20473;-70
2021/12/04 08:29:43;;;;;;;86.85;20.35;;;4.70;99.90;;;;;;5113336;27;20046;-70
2021/12/04 08:32:09;;;;;;;93.85;20.88;;;4.70;99.90;;;;;;5114184;27;20685;-70
2021/12/04 08:34:36;;;;;;;67.35;18.75;;;4.70;99.90;;;;;;5113782;27;20046;-68
2021/12/04 08:37:03;;;;;;;84.10;18.95;;;4.70;99.90;;;;;;5113979;27;20058;-69
2021/12/04 08:39:30;;;;;;;88.75;20.45;;;4.70;99.90;;;;;;5112282;27;20054;-70
2021/12/04 08:41:55;;;;;;;97.43;20.27;;;4.70;99.90;;;;;;5096336;27;20076;-70
2021/12/04 08:44:21;;;;;;;100.18;20.52;;;4.80;99.90;;;;;;5113057;28;20035;-69
2021/12/04 08:46:47;;;;;;;108.40;21.27;;;4.80;99.90;;;;;;5113662;27;20042;-70
2021/12/04 08:49:13;;;;;;;86.20;20.02;;;4.80;99.90;;;;;;5115125;27;20039;-70
2021/12/04 08:51:41;;;;;;;84.60;20.40;;;4.80;99.90;;;;;;5113356;27;20114;-69
2021/12/04 08:54:08;;;;;;;72.57;19.20;;;4.80;99.90;;;;;;5112790;27;20043;-70
2021/12/04 08:56:33;;;;;;;91.85;20.80;;;4.80;99.90;;;;;;5129663;27;20053;-70
2021/12/04 08:59:00;;;;;;;103.25;21.83;;;4.80;99.90;;;;;;5113376;27;20043;-70
2021/12/04 09:01:29;;;;;;;95.32;20.10;;;4.90;99.90;;;;;;5112642;27;20050;-70
2021/12/04 09:04:01;;;;;;;91.55;20.90;;;4.90;99.90;;;;;;5113952;27;20051;-70
2021/12/04 09:06:27;;;;;;;91.73;20.20;;;4.90;99.90;;;;;;5110513;27;20031;-69
2021/12/04 09:08:53;;;;;;;84.57;20.27;;;4.90;99.90;;;;;;5096096;27;20053;-70
2021/12/04 09:11:27;;;;;;;75.40;19.42;;;4.90;99.90;;;;;;5113142;27;20125;-70
2021/12/04 09:13:53;;;;;;;72.18;19.15;;;4.90;99.90;;;;;;5127231;27;20524;-69
2021/12/04 09:16:21;;;;;;;82.95;20.50;;;4.90;99.90;;;;;;5112898;27;20043;-71
2021/12/04 09:18:47;;;;;;;73.78;19.50;;;4.90;99.90;;;;;;5112887;27;20039;-71
2021/12/04 09:21:12;;;;;;;93.97;20.08;;;4.90;99.90;;;;;;5112319;27;20024;-70
2021/12/04 09:23:42;;;;;;;83.45;19.77;;;4.90;99.90;;;;;;5112948;27;20490;-70
2021/12/04 09:26:14;;;;;;;72.72;19.13;;;4.90;99.90;;;;;;5112367;27;20118;-71
2021/12/04 09:31:29;;;;;;;96.30;20.67;;;5.00;99.90;;;;;;5110172;27;20099;-71
2021/12/04 09:36:57;;;;;;;91.15;20.17;;;5.00;99.90;;;;;;5112283;27;20081;-70
2021/12/04 10:02:05;;;;;;;56.50;15.55;;;5.30;99.90;;;;;;5110330;28;20320;-70
2021/12/04 10:12:35;;;;;;;77.45;18.08;;;5.30;99.90;;;;;;5109104;28;20089;-71
2021/12/04 10:15:30;;;;;;;79.17;18.67;;;5.40;99.90;;;;;;5110748;28;20425;-70
2021/12/04 10:23:11;;;;;;;74.65;19.25;;;5.50;99.90;;;;;;5127878;28;20424;-70
2021/12/04 10:33:55;;;;;;;75.78;19.60;;;5.50;99.90;;;;;;5111234;28;20061;-71
2021/12/04 10:36:31;;;;;;;91.00;19.83;;;5.50;99.90;;;;;;5111112;28;20035;-71
2021/12/04 10:38:58;;;;;;;83.70;20.58;;;5.50;99.90;;;;;;5110995;28;20122;-70
2021/12/04 10:41:40;;;;;;;84.43;20.90;;;5.50;99.90;;;;;;5108806;28;20035;-71
2021/12/04 10:44:18;;;;;;;99.80;22.87;;;5.50;99.90;;;;;;5111288;28;20042;-71
2021/12/04 10:47:07;;;;;;;79.97;21.80;;;5.50;99.90;;;;;;5110607;28;20100;-71
2021/12/04 10:52:57;;;;;;;83.57;21.85;;;5.50;99.90;;;;;;5110946;28;20043;-70
2021/12/04 10:55:25;;;;;;;79.00;22.17;;;5.50;99.90;;;;;;5110738;28;20043;-71
2021/12/04 11:00:52;;;;;;;80.57;21.70;;;5.60;99.90;;;;;;5127895;28;20047;-71
2021/12/04 11:03:35;;;;;;;83.50;23.08;;;5.60;99.90;;;;;;5111644;28;20091;-71
2021/12/04 11:06:29;;;;;;;80.35;22.00;;;5.70;99.90;;;;;;5112787;28;20039;-70
2021/12/04 11:25:53;;;;;;;86.60;21.95;;;5.60;99.90;;;;;;5115816;27;20047;-70
2021/12/04 11:28:28;;;;;;;82.03;20.65;;;5.60;99.90;;;;;;5115827;27;20039;-71
2021/12/04 11:39:10;;;;;;;87.72;21.35;;;5.60;99.90;;;;;;5115845;27;20039;-71
2021/12/04 11:41:43;;;;;;;85.13;22.90;;;5.60;99.90;;;;;;5115415;27;20118;-70
2021/12/04 11:44:13;;;;;;;80.82;21.00;;;5.60;99.90;;;;;;5114886;27;20423;-71
2021/12/04 11:46:45;;;;;;;83.22;22.23;;;5.50;99.90;;;;;;5114958;27;20093;-70
2021/12/04 11:49:13;;;;;;;80.22;21.50;;;5.60;99.90;;;;;;5108509;27;20050;-71
2021/12/04 11:51:56;;;;;;;78.75;20.58;;;5.60;99.90;;;;;;5115328;27;20123;-70
2021/12/04 11:54:24;;;;;;;78.32;20.77;;;5.60;99.90;;;;;;5098344;27;20043;-70
2021/12/04 11:57:09;;;;;;;93.00;21.05;;;5.70;99.90;;;;;;5114931;27;20122;-71
2021/12/04 11:59:37;;;;;;;93.35;22.27;;;5.70;99.90;;;;;;5114469;27;20075;-71
2021/12/04 12:02:04;;;;;;;78.53;20.08;;;5.70;99.90;;;;;;5115438;27;20078;-71
2021/12/04 12:04:37;;;;;;;79.47;20.55;;;5.80;99.90;;;;;;5114117;27;20031;-71
2021/12/04 12:07:21;;;;;;;84.05;20.27;;;5.80;99.90;;;;;;5115019;27;20074;-71
2021/12/04 12:09:59;;;;;;;84.28;20.90;;;5.80;99.90;;;;;;5114734;27;20390;-72
2021/12/04 12:12:32;;;;;;;80.82;20.67;;;5.80;99.90;;;;;;5115254;27;20130;-71
2021/12/04 12:15:03;;;;;;;68.30;18.45;;;5.80;99.90;;;;;;5115253;27;20039;-71
2021/12/04 12:17:35;;;;;;;73.78;19.90;;;5.80;99.90;;;;;;5097770;27;20062;-71
2021/12/04 12:20:04;;;;;;;75.40;18.30;;;5.80;99.90;;;;;;5114517;27;20524;-72
2021/12/04 12:25:18;;;;;;;67.53;18.42;;;5.80;99.90;;;;;;5114995;27;20515;-71
2021/12/04 12:27:56;;;;;;;70.95;18.25;;;5.80;99.90;;;;;;5114692;27;20035;-71
2021/12/04 12:33:45;;;;;;;73.72;18.95;;;5.70;99.90;;;;;;5114673;27;20054;-71
2021/12/04 12:36:14;;;;;;;80.60;20.52;;;5.70;99.90;;;;;;5114558;27;20054;-71
2021/12/04 12:38:44;;;;;;;82.80;19.58;;;5.70;99.90;;;;;;5115031;27;20046;-71
2021/12/04 12:41:26;;;;;;;73.15;19.52;;;5.70;99.90;;;;;;5114457;27;20046;-71
2021/12/04 12:44:04;;;;;;;85.95;20.85;;;5.60;99.90;;;;;;5114619;27;20104;-71
2021/12/04 12:46:42;;;;;;;76.13;20.23;;;5.60;99.90;;;;;;5097379;27;20039;-71
2021/12/04 12:49:29;;;;;;;76.97;20.45;;;5.60;99.90;;;;;;5097483;27;20425;-71
2021/12/04 12:52:03;;;;;;;84.85;21.00;;;5.60;99.90;;;;;;5114716;27;20142;-71
2021/12/04 12:54:39;;;;;;;87.95;20.75;;;5.60;99.90;;;;;;5114509;27;20104;-71
2021/12/04 12:57:18;;;;;;;86.07;21.30;;;5.60;99.90;;;;;;5114162;27;20505;-71
2021/12/04 13:13:43;;;;;;;87.63;22.48;;;5.60;99.90;;;;;;5113989;27;20120;-71
2021/12/04 13:16:21;;;;;;;82.80;23.25;;;5.50;99.90;;;;;;5113650;27;20100;-71
2021/12/04 13:18:58;;;;;;;96.60;24.10;;;5.50;99.90;;;;;;5113767;27;20043;-71
2021/12/04 13:21:25;;;;;;;98.20;25.00;;;5.60;99.90;;;;;;5113572;27;20085;-71
2021/12/04 13:23:53;;;;;;;100.90;26.80;;;5.50;99.90;;;;;;5114215;27;20087;-71
2021/12/04 13:26:24;;;;;;;99.75;26.23;;;5.50;99.90;;;;;;5113927;27;20046;-71
2021/12/04 13:28:51;;;;;;;104.88;25.77;;;5.50;99.90;;;;;;5113814;27;20051;-71
2021/12/04 13:31:20;;;;;;;97.50;26.20;;;5.50;99.90;;;;;;5112894;27;20035;-71
2021/12/04 13:33:49;;;;;;;106.93;26.35;;;5.50;99.90;;;;;;5112998;27;20447;-71
2021/12/04 13:36:21;;;;;;;100.55;26.77;;;5.50;99.90;;;;;;5113002;27;20038;-71
2021/12/04 13:38:51;;;;;;;106.13;28.13;;;5.50;99.90;;;;;;5112466;27;20039;-71
2021/12/04 13:41:17;;;;;;;112.40;26.65;;;5.50;99.90;;;;;;5101450;27;20039;-71
2021/12/04 13:43:52;;;;;;;112.82;27.63;;;5.50;99.90;;;;;;5107486;27;20034;-71
2021/12/04 13:46:18;;;;;;;98.03;26.70;;;5.50;99.90;;;;;;5095797;27;20035;-73
2021/12/04 13:48:44;;;;;;;113.85;28.08;;;5.50;99.90;;;;;;5113362;27;20184;-73
2021/12/04 13:51:11;;;;;;;99.00;28.02;;;5.50;99.90;;;;;;5093251;27;20128;-72
2021/12/04 13:53:39;;;;;;;101.82;27.67;;;5.50;99.90;;;;;;5110783;27;20071;-73
2021/12/04 13:56:11;;;;;;;113.60;28.98;;;5.50;99.90;;;;;;5109736;28;20043;-73
2021/12/04 13:58:52;;;;;;;102.67;26.97;;;5.50;99.90;;;;;;5113000;28;20042;-75
2021/12/04 14:01:18;;;;;;;107.27;26.60;;;5.50;99.90;;;;;;5112796;28;20043;-72
2021/12/04 14:03:46;;;;;;;95.93;25.70;;;5.50;99.90;;;;;;5113138;28;20083;-73
2021/12/04 14:06:15;;;;;;;89.63;26.48;;;5.40;99.90;;;;;;5113305;28;20042;-72
2021/12/04 14:08:41;;;;;;;98.30;26.73;;;5.40;99.90;;;;;;5113223;28;20145;-74
2021/12/04 14:11:06;;;;;;;100.78;26.90;;;5.40;99.90;;;;;;5112892;28;20043;-74
2021/12/04 14:13:33;;;;;;;100.45;26.33;;;5.40;99.90;;;;;;5111240;28;20054;-73
2021/12/04 14:15:58;;;;;;;112.97;27.95;;;5.40;99.90;;;;;;5095866;28;20050;-74
2021/12/04 14:18:26;;;;;;;115.95;28.48;;;5.40;99.90;;;;;;5113012;28;20035;-72
2021/12/04 14:21:00;;;;;;;102.25;28.33;;;5.40;99.90;;;;;;5109910;28;20042;-70
2021/12/04 14:23:28;;;;;;;108.25;28.25;;;5.40;99.90;;;;;;5109792;28;20035;-71
2021/12/04 14:25:54;;;;;;;108.00;29.42;;;5.40;99.90;;;;;;5110265;28;20066;-70
2021/12/04 14:28:30;;;;;;;108.63;27.48;;;5.40;99.90;;;;;;5109897;28;20039;-71
2021/12/04 14:30:55;;;;;;;105.68;27.52;;;5.40;99.90;;;;;;5109278;28;20088;-71
2021/12/04 14:33:23;;;;;;;110.45;28.48;;;5.40;99.90;;;;;;5111427;28;20070;-71
2021/12/04 14:35:51;;;;;;;109.20;28.63;;;5.30;99.90;;;;;;5111695;28;20498;-71
2021/12/04 14:38:20;;;;;;;120.53;29.50;;;5.40;99.90;;;;;;5111285;28;20038;-71
2021/12/04 14:40:51;;;;;;;116.60;27.88;;;5.40;99.90;;;;;;5110060;28;20059;-71
2021/12/04 14:43:21;;;;;;;97.68;28.10;;;5.40;99.90;;;;;;5095831;27;20038;-71
2021/12/04 14:45:49;;;;;;;102.80;27.98;;;5.30;99.90;;;;;;5115852;27;20023;-71
2021/12/04 14:48:37;;;;;;;103.35;27.95;;;5.30;99.90;;;;;;5114622;27;20047;-71
2021/12/04 14:51:07;;;;;;;106.03;28.02;;;5.40;99.90;;;;;;5115168;27;20039;-71
2021/12/04 14:53:36;;;;;;;98.75;26.20;;;5.30;99.90;;;;;;5116034;27;20031;-71
2021/12/04 14:56:06;;;;;;;104.07;26.85;;;5.30;99.90;;;;;;5098261;27;20031;-71
2021/12/04 14:58:31;;;;;;;102.38;26.70;;;5.30;99.90;;;;;;5128689;27;20031;-71
2021/12/04 15:01:04;;;;;;;104.63;26.88;;;5.30;99.90;;;;;;5115422;27;20066;-71
2021/12/04 15:03:35;;;;;;;95.18;25.98;;;5.30;99.90;;;;;;5113712;27;20126;-72
2021/12/04 15:06:04;;;;;;;99.45;27.60;;;5.30;99.90;;;;;;5114170;27;20402;-71
2021/12/04 15:08:34;;;;;;;102.85;29.05;;;5.30;99.90;;;;;;5096873;27;20069;-72
2021/12/04 15:11:09;;;;;;;105.72;29.20;;;5.30;99.90;;;;;;5112491;27;20038;-72
2021/12/04 15:13:41;;;;;;;89.53;27.02;;;5.30;99.90;;;;;;5114472;27;20047;-72
2021/12/04 15:16:08;;;;;;;103.15;29.50;;;5.30;99.90;;;;;;5112720;27;20122;-72
2021/12/04 15:18:39;;;;;;;102.43;29.30;;;5.30;99.90;;;;;;5114694;27;20051;-72
2021/12/04 15:21:14;;;;;;;106.93;29.13;;;5.30;99.90;;;;;;5130525;27;20043;-72
2021/12/04 15:23:40;;;;;;;99.35;28.23;;;5.30;99.90;;;;;;5114289;27;20031;-73
2021/12/04 15:26:11;;;;;;;104.10;28.00;;;5.30;99.90;;;;;;5113917;27;20443;-73